Airfield :
LOGIN :

Register | Disclaimer

   EN    FR    IT 

 










Legend :    VFR   Marginal VFR   IFR   Intensive IFR   Very Intensive IFR
Visi :
Ceiling :
>= 8 km
>= 3000ft
5 to 8 km
1000 to 3000 ft
1500m to 5 km
500 to 1000 ft
800 to 1500m
200 to 500 ft
< 800m
< 200 ft
Symbols :   Thunderstorms  Fog  Heavy snow  Heavy precipitations  Wind > 20 kt
SIGMETs :     Misc.  Thunderstorms  Icing  Turbulence  Mountain Waves  Volcanic Ashes







- Airport Elevation : 1496 ft
- IATA code : SBZ


LRSB - Sibiu

CURRENT METAR :
  • 191700Z 36003KT 9999 FEW007 BKN008 02/M00 Q1017 R27/29//95

EXPIRED METARs :
  • 191630Z 34003KT 9999 FEW008 BKN009 01/M00 Q1017 R27/29//95
  • 191600Z 34003KT 9999 OVC009 01/M00 Q1016 R27/29//95
  • 191530Z 36004KT 9999 OVC009 01/M00 Q1016 R27/29//95
  • 191500Z 35004KT 9999 OVC011 02/M00 Q1016 R27/29//95
  • 191430Z 36004KT 9999 BKN011 BKN025 02/M00 Q1016 R27/29//95

TAF TAF LRSB
Valid from the 19 at 18:00 until the 20 at 18:00 UTC


191700Z 1918/2018 VRB04KT 9999 BKN010
TEMPO 1921/2005 5000 BR BKN005 OVC010
PROB30
TEMPO 1922/2002 1500 BR BKN002 OVC005
BECMG 2008/2010 SCT005 SCT035 BKN090
BECMG 2011/2013 13010KT 5000 -RA BR
No reported NOTAMs for that airfield.



MET'MAP, your aeronautical weather chart ! - Copyright ORBIFLY December 2007 - Disclaimer

ORBIFLY MET'MAP TEAM :

Programming & Development : Alexandra Zaïnal
Concept & Development : Baudouin d'Aumeries
Co-Development & Prog : Marc-Olivier Méhu
Technical & hardware support : Manuel Goepfert

Contact : metmap@orbifly.com




SOURCES & CREDITS :

   NOAA